createdAt,value
2019-01-13T00:01:24.435Z,10.43
2019-01-13T00:03:55.855Z,9.73
2019-01-13T00:06:26.516Z,9.20
2019-01-13T00:08:59.273Z,9.07
2019-01-13T00:11:30.686Z,8.83
2019-01-13T00:14:01.347Z,8.43
2019-01-13T00:16:32.109Z,9.23
2019-01-13T00:19:02.713Z,9.80
2019-01-13T00:21:33.207Z,9.73
2019-01-13T00:24:03.911Z,7.27
2019-01-13T00:26:34.598Z,9.47
2019-01-13T00:29:11.007Z,8.93
2019-01-13T00:31:41.940Z,8.00
2019-01-13T00:34:14.995Z,7.57
2019-01-13T00:36:46.768Z,8.30
2019-01-13T00:39:17.316Z,10.07
2019-01-13T00:41:47.853Z,10.13
2019-01-13T00:44:18.872Z,8.57
2019-01-13T00:46:52.210Z,8.37
2019-01-13T00:49:23.242Z,7.87
2019-01-13T00:51:53.820Z,8.23
2019-01-13T00:54:24.406Z,9.00
2019-01-13T00:56:55.059Z,9.20
2019-01-13T00:59:25.560Z,7.10
2019-01-13T01:01:56.248Z,9.00
2019-01-13T01:04:27.102Z,8.20
2019-01-13T01:07:00.753Z,7.90
2019-01-13T01:09:34.331Z,7.07
2019-01-13T01:12:05.195Z,9.37
2019-01-13T01:14:35.865Z,11.03
2019-01-13T01:17:07.188Z,9.50
2019-01-13T01:19:37.879Z,11.20
2019-01-13T01:22:08.523Z,8.77
2019-01-13T01:24:39.176Z,8.83
2019-01-13T01:27:09.826Z,9.27
2019-01-13T01:29:40.369Z,8.07
2019-01-13T01:32:10.917Z,9.50
2019-01-13T01:34:42.255Z,9.20
2019-01-13T01:37:12.820Z,8.80
2019-01-13T01:39:43.546Z,10.53
2019-01-13T01:42:14.086Z,12.00
2019-01-13T01:44:44.665Z,10.00
2019-01-13T01:47:16.574Z,10.67
2019-01-13T01:49:47.266Z,10.67
2019-01-13T01:52:19.373Z,9.67
2019-01-13T01:54:51.323Z,9.47
2019-01-13T01:57:21.853Z,9.77
2019-01-13T01:59:53.098Z,8.57
2019-01-13T02:02:23.759Z,10.90
2019-01-13T02:04:54.386Z,9.73
2019-01-13T02:07:25.410Z,9.60
2019-01-13T02:09:58.835Z,10.50
2019-01-13T02:12:28.981Z,9.30
2019-01-13T02:14:59.546Z,9.97
2019-01-13T02:17:33.190Z,11.20
2019-01-13T02:20:02.988Z,9.07
2019-01-13T02:22:36.880Z,9.77
2019-01-13T02:25:11.113Z,10.63
2019-01-13T02:27:41.825Z,11.33
2019-01-13T02:30:24.573Z,10.57
2019-01-13T02:32:55.729Z,10.80
2019-01-13T02:35:27.581Z,10.23
2019-01-13T02:37:58.218Z,9.57
2019-01-13T02:40:29.215Z,13.47
2019-01-13T02:43:00.037Z,11.23
2019-01-13T02:45:31.764Z,11.57
2019-01-13T02:48:02.247Z,12.13
2019-01-13T02:50:34.243Z,13.30
2019-01-13T02:53:05.128Z,11.77
2019-01-13T02:55:35.713Z,10.07
2019-01-13T02:58:06.349Z,11.10
2019-01-13T03:00:41.179Z,9.73
2019-01-13T03:03:11.822Z,10.30
2019-01-13T03:05:45.455Z,11.57
2019-01-13T03:08:16.655Z,11.23
2019-01-13T03:10:47.405Z,9.67
2019-01-13T03:13:18.119Z,8.83
2019-01-13T03:15:48.716Z,9.00
2019-01-13T03:18:19.601Z,8.43
2019-01-13T03:20:50.808Z,7.63
2019-01-13T03:23:21.776Z,7.70
2019-01-13T03:25:52.385Z,8.63
2019-01-13T03:28:23.000Z,5.67
2019-01-13T03:30:53.608Z,5.73
2019-01-13T03:33:28.840Z,6.10
2019-01-13T03:36:00.429Z,4.77
2019-01-13T03:38:31.104Z,5.70
2019-01-13T03:41:01.815Z,6.23
2019-01-13T03:43:34.106Z,5.23
2019-01-13T03:46:04.823Z,5.43
2019-01-13T03:48:35.744Z,5.73
2019-01-13T03:51:06.420Z,6.33
2019-01-13T03:53:38.696Z,6.07
2019-01-13T03:56:09.417Z,6.10
2019-01-13T03:58:40.823Z,6.57
2019-01-13T04:01:18.386Z,6.17
2019-01-13T04:03:43.737Z,6.23
2019-01-13T04:06:14.758Z,7.23
2019-01-13T04:08:45.351Z,7.20
2019-01-13T04:11:16.235Z,6.07
2019-01-13T04:13:47.132Z,7.43
2019-01-13T04:16:18.530Z,7.23
2019-01-13T04:18:52.155Z,6.17
2019-01-13T04:21:22.767Z,6.07
2019-01-13T04:23:53.763Z,6.40
2019-01-13T04:26:24.421Z,6.17
2019-01-13T04:28:54.948Z,5.83
2019-01-13T04:31:26.893Z,5.77
2019-01-13T04:33:57.635Z,4.90
2019-01-13T04:36:29.003Z,5.17
2019-01-13T04:38:59.576Z,5.07
2019-01-13T04:41:30.298Z,5.23
2019-01-13T04:44:00.818Z,5.13
2019-01-13T04:46:31.418Z,4.67
2019-01-13T04:49:01.903Z,16.80
2019-01-13T04:51:35.609Z,5.63
2019-01-13T04:54:06.544Z,5.37
2019-01-13T04:56:37.480Z,5.50
2019-01-13T04:59:07.949Z,5.13
2019-01-13T05:01:38.921Z,5.20
2019-01-13T05:04:09.456Z,4.87
2019-01-13T05:06:40.354Z,4.07
2019-01-13T05:09:11.301Z,4.00
2019-01-13T05:11:46.597Z,4.40
2019-01-13T05:14:17.540Z,5.80
2019-01-13T05:16:48.134Z,4.17
2019-01-13T05:19:18.933Z,4.90
2019-01-13T05:21:52.293Z,4.97
2019-01-13T05:24:22.826Z,4.60
2019-01-13T05:26:53.527Z,4.43
2019-01-13T05:29:27.494Z,5.07
2019-01-13T05:31:58.107Z,4.87
2019-01-13T05:34:28.626Z,5.00
2019-01-13T05:37:00.083Z,4.87
2019-01-13T05:39:30.621Z,5.47
2019-01-13T05:42:01.228Z,4.20
2019-01-13T05:44:32.930Z,5.10
2019-01-13T05:47:03.608Z,4.87
2019-01-13T05:49:37.209Z,4.90
2019-01-13T05:52:11.565Z,3.90
2019-01-13T05:54:45.355Z,5.57
2019-01-13T05:57:15.981Z,4.90
2019-01-13T05:59:46.894Z,5.37
2019-01-13T06:02:20.121Z,4.70
2019-01-13T06:04:53.224Z,4.67
2019-01-13T06:07:23.778Z,4.30
2019-01-13T06:09:57.458Z,6.37
2019-01-13T06:12:28.360Z,3.80
2019-01-13T06:14:59.517Z,4.47
2019-01-13T06:17:30.013Z,5.40
2019-01-13T06:20:00.567Z,4.40
2019-01-13T06:22:31.149Z,3.60
2019-01-13T06:25:01.791Z,3.90
2019-01-13T06:27:34.224Z,7.83
2019-01-13T06:30:08.941Z,4.57
2019-01-13T06:32:39.541Z,3.60
2019-01-13T06:35:10.581Z,4.50
2019-01-13T06:37:42.031Z,3.90
2019-01-13T06:40:18.534Z,4.33
2019-01-13T06:42:49.189Z,4.70
2019-01-13T06:45:22.701Z,4.20
2019-01-13T06:47:53.288Z,4.77
2019-01-13T06:50:23.886Z,4.87
2019-01-13T06:52:54.529Z,4.00
2019-01-13T06:55:25.124Z,4.03
2019-01-13T06:57:56.033Z,3.87
2019-01-13T07:00:27.149Z,4.77
2019-01-13T07:02:58.271Z,3.70
2019-01-13T07:05:28.749Z,4.40
2019-01-13T07:07:59.224Z,4.40
2019-01-13T07:10:29.954Z,4.20
2019-01-13T07:13:00.493Z,5.43
2019-01-13T07:15:31.062Z,4.33
2019-01-13T07:18:01.843Z,4.47
2019-01-13T07:20:32.365Z,4.37
2019-01-13T07:23:02.752Z,4.83
2019-01-13T07:25:33.200Z,5.03
2019-01-13T07:28:03.698Z,4.70
2019-01-13T07:30:34.111Z,4.37
2019-01-13T07:33:05.558Z,4.70
2019-01-13T07:35:36.491Z,4.87
2019-01-13T07:38:07.866Z,4.43
2019-01-13T07:40:38.343Z,4.37
2019-01-13T07:43:08.989Z,4.10
2019-01-13T07:45:40.793Z,3.90
2019-01-13T07:48:11.565Z,4.27
2019-01-13T07:50:42.102Z,5.17
2019-01-13T07:53:12.592Z,5.83
2019-01-13T07:55:43.120Z,3.57
2019-01-13T07:58:13.627Z,3.93
2019-01-13T08:00:44.151Z,3.70
2019-01-13T08:03:14.691Z,3.93
2019-01-13T08:05:45.218Z,3.30
2019-01-13T08:08:15.769Z,3.90
2019-01-13T08:10:46.310Z,3.43
2019-01-13T08:13:16.901Z,3.13
2019-01-13T08:15:47.522Z,3.40
2019-01-13T08:18:18.176Z,3.40
2019-01-13T08:20:48.697Z,3.20
2019-01-13T08:23:19.487Z,3.93
2019-01-13T08:25:51.261Z,3.60
2019-01-13T08:28:23.941Z,5.13
2019-01-13T08:30:56.766Z,3.67
2019-01-13T08:33:33.400Z,4.40
2019-01-13T08:36:04.688Z,4.70
2019-01-13T08:38:36.037Z,4.77
2019-01-13T08:41:06.589Z,4.30
2019-01-13T08:43:37.131Z,6.37
2019-01-13T08:46:08.081Z,4.20
2019-01-13T08:48:38.903Z,4.60
2019-01-13T08:51:09.614Z,4.47
2019-01-13T08:53:40.642Z,10.97
2019-01-13T08:56:11.268Z,5.60
2019-01-13T08:58:42.115Z,4.90
2019-01-13T09:01:12.820Z,4.90
2019-01-13T09:03:43.373Z,4.37
2019-01-13T09:06:14.375Z,3.47
2019-01-13T09:08:45.329Z,3.60
2019-01-13T09:11:16.196Z,6.80
2019-01-13T09:13:47.391Z,3.70
2019-01-13T09:16:17.883Z,3.87
2019-01-13T09:18:48.359Z,4.03
2019-01-13T09:21:18.845Z,4.53
2019-01-13T09:23:49.421Z,4.57
2019-01-13T09:26:19.980Z,4.10
2019-01-13T09:28:50.458Z,4.83
2019-01-13T09:31:20.923Z,4.60
2019-01-13T09:33:51.487Z,4.87
2019-01-13T09:36:21.993Z,5.17
2019-01-13T09:38:53.779Z,4.40
2019-01-13T09:41:24.588Z,5.37
2019-01-13T09:43:55.139Z,4.90
2019-01-13T09:46:25.964Z,6.33
2019-01-13T09:48:56.624Z,5.23
2019-01-13T09:51:27.174Z,5.47
2019-01-13T09:53:57.642Z,4.60
2019-01-13T09:56:28.305Z,3.93
2019-01-13T09:58:59.872Z,4.73
2019-01-13T10:01:30.425Z,4.23
2019-01-13T10:04:01.149Z,6.77
2019-01-13T10:06:31.676Z,5.20
2019-01-13T10:09:02.301Z,5.90
2019-01-13T10:11:32.917Z,6.27
2019-01-13T10:14:03.703Z,4.93
2019-01-13T10:16:34.185Z,5.63
2019-01-13T10:19:04.960Z,5.47
2019-01-13T10:21:35.410Z,4.70
2019-01-13T10:24:07.167Z,5.57
2019-01-13T10:26:37.797Z,6.43
2019-01-13T10:29:09.215Z,5.33
2019-01-13T10:31:40.198Z,6.57
2019-01-13T10:34:10.758Z,5.83
2019-01-13T10:36:41.419Z,7.03
2019-01-13T10:39:12.873Z,9.57
2019-01-13T10:41:44.583Z,5.53
2019-01-13T10:44:15.249Z,5.57
2019-01-13T10:46:45.866Z,5.87
2019-01-13T10:49:16.499Z,6.27
2019-01-13T10:51:47.716Z,7.00
2019-01-13T10:54:18.373Z,5.30
2019-01-13T10:56:48.978Z,10.13
2019-01-13T10:59:23.036Z,7.30
2019-01-13T11:01:56.587Z,6.93
2019-01-13T11:04:27.251Z,5.83
2019-01-13T11:06:57.774Z,6.03
2019-01-13T11:09:31.159Z,6.63
2019-01-13T11:12:01.960Z,6.13
2019-01-13T11:14:33.232Z,7.43
2019-01-13T11:17:04.896Z,5.27
2019-01-13T11:19:35.917Z,5.07
2019-01-13T11:22:06.616Z,4.77
2019-01-13T11:24:37.324Z,4.37
2019-01-13T11:27:07.860Z,4.87
2019-01-13T11:29:38.406Z,4.97
2019-01-13T11:32:09.121Z,4.67
2019-01-13T11:34:39.743Z,5.67
2019-01-13T11:37:10.348Z,5.53
2019-01-13T11:39:41.743Z,5.70
2019-01-13T11:42:14.447Z,5.30
2019-01-13T11:44:45.075Z,6.73
2019-01-13T11:47:16.737Z,5.17
2019-01-13T11:49:47.420Z,4.83
2019-01-13T11:52:18.078Z,7.40
2019-01-13T11:54:49.339Z,5.07
2019-01-13T11:57:19.865Z,4.60
2019-01-13T11:59:50.579Z,5.80
2019-01-13T12:02:21.093Z,6.17
2019-01-13T12:04:52.935Z,6.20
2019-01-13T12:07:23.485Z,5.73
2019-01-13T12:09:54.066Z,3.80
2019-01-13T12:12:24.552Z,3.63
2019-01-13T12:14:55.162Z,4.67
2019-01-13T12:17:26.110Z,3.17
2019-01-13T12:19:56.638Z,3.63
2019-01-13T12:22:27.169Z,3.27
2019-01-13T12:24:57.763Z,3.97
2019-01-13T12:27:28.863Z,4.40
2019-01-13T12:29:59.420Z,4.53
2019-01-13T12:32:29.968Z,4.40
2019-01-13T12:35:00.463Z,5.83
2019-01-13T12:37:31.810Z,4.13
2019-01-13T12:40:04.735Z,4.50
2019-01-13T12:42:37.152Z,5.53
2019-01-13T12:45:11.782Z,4.80
2019-01-13T12:47:42.354Z,4.80
2019-01-13T12:50:20.405Z,5.20
2019-01-13T12:52:50.988Z,4.23
2019-01-13T12:55:21.565Z,4.10
2019-01-13T12:57:53.067Z,7.93
2019-01-13T13:00:24.288Z,6.60
2019-01-13T13:02:54.981Z,6.60
2019-01-13T13:05:25.568Z,7.70
2019-01-13T13:07:57.702Z,6.23
2019-01-13T13:10:38.252Z,6.67
2019-01-13T13:13:09.030Z,7.30
2019-01-13T13:15:39.661Z,8.77
2019-01-13T13:18:10.245Z,6.83
2019-01-13T13:20:40.997Z,6.10
2019-01-13T13:23:11.790Z,6.93
2019-01-13T13:25:42.551Z,6.47
2019-01-13T13:28:13.150Z,4.90
2019-01-13T13:30:46.568Z,5.50
2019-01-13T13:33:16.888Z,4.33
2019-01-13T13:35:50.011Z,5.07
2019-01-13T13:38:22.214Z,3.53
2019-01-13T13:40:53.959Z,3.13
2019-01-13T13:43:33.684Z,4.43
2019-01-13T13:46:08.347Z,5.93
2019-01-13T13:48:38.913Z,3.80
2019-01-13T13:51:10.216Z,5.43
2019-01-13T13:53:40.739Z,4.73
2019-01-13T13:56:11.416Z,4.23
2019-01-13T13:58:42.099Z,4.53
2019-01-13T14:01:12.786Z,4.93
2019-01-13T14:03:45.828Z,5.13
2019-01-13T14:06:15.768Z,5.10
2019-01-13T14:08:46.205Z,5.03
2019-01-13T14:11:17.708Z,4.50
2019-01-13T14:13:48.259Z,4.07
2019-01-13T14:16:20.228Z,5.17
2019-01-13T14:18:50.773Z,4.60
2019-01-13T14:21:21.429Z,4.07
2019-01-13T14:23:51.973Z,4.73
2019-01-13T14:26:23.414Z,5.73
2019-01-13T14:28:54.192Z,4.97
2019-01-13T14:31:25.676Z,5.77
2019-01-13T14:33:56.655Z,5.87
2019-01-13T14:36:29.129Z,6.27
2019-01-13T14:39:00.930Z,6.57
2019-01-13T14:41:34.041Z,9.57
2019-01-13T14:44:07.011Z,8.53
2019-01-13T14:46:37.592Z,8.07
2019-01-13T14:49:09.177Z,10.17
2019-01-13T14:51:41.196Z,8.43
2019-01-13T14:54:12.305Z,7.27
2019-01-13T14:56:45.443Z,8.80
2019-01-13T14:59:17.160Z,8.13
2019-01-13T15:01:51.327Z,10.03
2019-01-13T15:04:21.466Z,8.40
2019-01-13T15:06:53.622Z,10.77
2019-01-13T15:09:27.029Z,11.97
2019-01-13T15:11:59.518Z,9.03
2019-01-13T15:14:30.443Z,11.23
2019-01-13T15:17:01.727Z,14.40
2019-01-13T15:19:32.194Z,14.00
2019-01-13T15:22:05.658Z,17.03
2019-01-13T15:24:36.154Z,12.87
2019-01-13T15:27:06.757Z,14.43
2019-01-13T15:29:38.999Z,15.90
2019-01-13T15:32:09.692Z,15.43
2019-01-13T15:34:40.607Z,14.67
2019-01-13T15:37:11.347Z,11.57
2019-01-13T15:39:41.812Z,12.63
2019-01-13T15:42:13.253Z,11.80
2019-01-13T15:44:43.867Z,10.73
2019-01-13T15:47:14.497Z,9.77
2019-01-13T15:49:44.887Z,9.80
2019-01-13T15:52:15.505Z,12.10
2019-01-13T15:54:48.959Z,11.90
2019-01-13T15:57:19.827Z,10.93
2019-01-13T15:59:50.370Z,10.63
2019-01-13T16:02:21.752Z,8.50
2019-01-13T16:04:52.319Z,8.67
2019-01-13T16:07:25.255Z,12.53
2019-01-13T16:09:57.902Z,8.37
2019-01-13T16:12:29.607Z,9.90
2019-01-13T16:15:03.530Z,11.53
2019-01-13T16:17:36.343Z,12.50
2019-01-13T16:20:20.978Z,10.73
2019-01-13T16:22:54.544Z,14.03
2019-01-13T16:25:27.675Z,16.17
2019-01-13T16:27:59.959Z,13.33
2019-01-13T16:30:38.797Z,9.23
2019-01-13T16:33:09.594Z,10.63
2019-01-13T16:35:40.378Z,10.40
2019-01-13T16:38:12.242Z,10.10
2019-01-13T16:40:45.107Z,10.33
2019-01-13T16:43:18.075Z,10.37
2019-01-13T16:45:49.433Z,10.57
2019-01-13T16:48:20.814Z,13.50
2019-01-13T16:50:53.080Z,10.70
2019-01-13T16:53:28.813Z,12.53
2019-01-13T16:56:01.275Z,11.63
2019-01-13T16:58:32.036Z,11.57
2019-01-13T17:01:02.689Z,11.57
2019-01-13T17:03:33.351Z,10.10
2019-01-13T17:06:04.307Z,9.50
2019-01-13T17:08:34.957Z,9.83
2019-01-13T17:11:07.033Z,13.60
2019-01-13T17:13:37.946Z,10.63
2019-01-13T17:16:08.504Z,12.10
2019-01-13T17:18:40.313Z,12.53
2019-01-13T17:21:10.957Z,12.07
2019-01-13T17:23:43.196Z,13.80
2019-01-13T17:26:13.737Z,11.33
2019-01-13T17:28:45.404Z,12.27
2019-01-13T17:31:16.008Z,10.47
2019-01-13T17:33:46.575Z,13.27
2019-01-13T17:36:17.285Z,14.53
2019-01-13T17:38:47.814Z,9.00
2019-01-13T17:41:18.420Z,9.40
2019-01-13T17:43:50.619Z,10.17
2019-01-13T17:46:21.246Z,10.43
2019-01-13T17:48:51.802Z,11.37
2019-01-13T17:51:25.189Z,12.10
2019-01-13T17:53:56.017Z,11.37
2019-01-13T17:56:27.018Z,14.67
2019-01-13T17:58:57.996Z,11.07
2019-01-13T18:01:28.833Z,10.90
2019-01-13T18:03:59.313Z,8.33
2019-01-13T18:06:29.793Z,6.57
2019-01-13T18:09:02.092Z,8.07
2019-01-13T18:11:32.597Z,7.53
2019-01-13T18:14:03.253Z,6.27
2019-01-13T18:16:34.762Z,5.87
2019-01-13T18:19:05.385Z,6.97
2019-01-13T18:21:36.011Z,6.37
2019-01-13T18:24:07.382Z,8.60
2019-01-13T18:26:39.406Z,11.23
2019-01-13T18:29:09.993Z,12.90
2019-01-13T18:31:40.539Z,12.17
2019-01-13T18:34:11.014Z,10.10
2019-01-13T18:36:41.634Z,6.00
2019-01-13T18:39:12.328Z,6.30
2019-01-13T18:41:42.999Z,4.20
2019-01-13T18:44:14.510Z,7.67
2019-01-13T18:46:45.207Z,5.53
2019-01-13T18:49:15.871Z,3.87
2019-01-13T18:51:46.699Z,3.43
2019-01-13T18:54:17.300Z,3.13
2019-01-13T18:56:47.746Z,3.53
2019-01-13T18:59:18.503Z,3.60
2019-01-13T19:01:49.172Z,3.07
2019-01-13T19:04:23.156Z,3.80
2019-01-13T19:06:53.819Z,5.07
2019-01-13T19:09:24.475Z,4.80
2019-01-13T19:11:55.079Z,5.70
2019-01-13T19:14:32.013Z,5.77
2019-01-13T19:17:02.636Z,5.33
2019-01-13T19:19:37.056Z,6.47
2019-01-13T19:22:08.782Z,3.70
2019-01-13T19:24:39.412Z,2.77
2019-01-13T19:27:10.716Z,3.33
2019-01-13T19:29:45.342Z,2.67
2019-01-13T19:32:15.897Z,1.90
2019-01-13T19:34:46.749Z,1.60
2019-01-13T19:37:17.385Z,1.80
2019-01-13T19:39:48.421Z,4.40
2019-01-13T19:42:18.959Z,1.90
2019-01-13T19:47:50.645Z,2.33
2019-01-13T19:50:24.022Z,1.30
2019-01-13T19:52:55.797Z,1.57
2019-01-13T19:55:26.800Z,1.33
2019-01-13T19:57:57.436Z,0.87
2019-01-13T20:00:31.882Z,1.10
2019-01-13T20:03:02.596Z,0.80
2019-01-13T20:05:33.193Z,0.53
2019-01-13T20:08:04.223Z,1.00
2019-01-13T20:10:34.919Z,0.97
2019-01-13T20:13:05.633Z,0.77
2019-01-13T20:15:36.272Z,1.57
2019-01-13T20:18:08.583Z,0.90
2019-01-13T20:20:39.052Z,1.00
2019-01-13T20:23:09.584Z,1.47
2019-01-13T20:25:48.981Z,1.10
2019-01-13T20:28:19.403Z,1.00
2019-01-13T20:30:50.046Z,1.30
2019-01-13T20:33:20.979Z,1.00
2019-01-13T20:35:51.591Z,1.00
2019-01-13T20:38:22.295Z,1.13
2019-01-13T20:40:53.228Z,2.87
2019-01-13T20:43:25.924Z,1.63
2019-01-13T20:45:56.633Z,3.83
2019-01-13T20:48:30.799Z,5.80
2019-01-13T20:51:01.397Z,4.93
2019-01-13T20:53:32.611Z,4.80
2019-01-13T20:56:03.297Z,5.73
2019-01-13T20:58:33.954Z,3.50
2019-01-13T21:01:04.606Z,9.03
2019-01-13T21:03:35.143Z,4.50
2019-01-13T21:06:05.836Z,4.13
2019-01-13T21:08:36.557Z,3.40
2019-01-13T21:11:07.485Z,4.00
2019-01-13T21:13:38.072Z,2.97
2019-01-13T21:16:08.785Z,2.87
2019-01-13T21:18:39.465Z,3.57
2019-01-13T21:21:10.071Z,3.80
2019-01-13T21:23:40.741Z,3.93
2019-01-13T21:26:11.360Z,2.70
2019-01-13T21:28:42.079Z,3.80
2019-01-13T21:31:12.617Z,4.17
2019-01-13T21:33:43.113Z,3.80
2019-01-13T21:36:13.911Z,2.10
2019-01-13T21:38:44.876Z,3.03
2019-01-13T21:41:15.479Z,3.43
2019-01-13T21:43:46.378Z,4.40
2019-01-13T21:46:17.025Z,2.30
2019-01-13T21:48:48.406Z,1.87
2019-01-13T21:51:19.221Z,1.43
2019-01-13T21:53:52.824Z,2.10
2019-01-13T21:56:23.733Z,2.37
2019-01-13T21:58:54.307Z,1.63
2019-01-13T22:01:24.949Z,0.93
2019-01-13T22:03:56.129Z,1.50
2019-01-13T22:06:26.757Z,1.07
2019-01-13T22:08:57.612Z,2.10
2019-01-13T22:11:28.302Z,1.60
2019-01-13T22:13:58.961Z,1.40
2019-01-13T22:16:30.979Z,1.07
2019-01-13T22:19:01.596Z,1.10
2019-01-13T22:21:32.602Z,1.37
2019-01-13T22:24:03.229Z,1.27
2019-01-13T22:26:33.907Z,1.40
2019-01-13T22:29:04.699Z,4.37
2019-01-13T22:31:36.906Z,7.00
2019-01-13T22:34:07.505Z,9.03
2019-01-13T22:36:37.953Z,8.13
2019-01-13T22:39:09.033Z,6.80
2019-01-13T22:41:39.638Z,5.30
2019-01-13T22:44:10.165Z,4.80
2019-01-13T22:46:40.813Z,5.07
2019-01-13T22:49:12.548Z,4.43
2019-01-13T22:51:43.194Z,2.73
2019-01-13T22:54:13.747Z,3.30
2019-01-13T22:56:44.370Z,3.03
2019-01-13T22:59:15.475Z,3.50
2019-01-13T23:01:46.207Z,2.63
2019-01-13T23:04:16.804Z,2.27
2019-01-13T23:06:48.211Z,3.33
2019-01-13T23:09:18.921Z,4.37
2019-01-13T23:11:49.427Z,3.67
2019-01-13T23:14:20.044Z,4.47
2019-01-13T23:16:50.699Z,6.63
2019-01-13T23:26:10.934Z,7.23
2019-01-13T23:28:41.560Z,4.30
2019-01-13T23:31:12.384Z,3.70
2019-01-13T23:33:43.512Z,3.43
2019-01-13T23:36:14.157Z,4.87
2019-01-13T23:38:44.714Z,3.60
2019-01-13T23:41:15.408Z,4.93
2019-01-13T23:43:46.039Z,5.83
2019-01-13T23:46:16.570Z,4.60
2019-01-13T23:48:47.124Z,5.57
2019-01-13T23:51:18.522Z,3.00
2019-01-13T23:53:49.018Z,4.80
2019-01-13T23:56:19.490Z,5.97
2019-01-13T23:58:50.031Z,4.63
